Airfield :
LOGIN :

Register | Disclaimer

   EN    FR    IT 

 










Legend :    VFR   Marginal VFR   IFR   Intensive IFR   Very Intensive IFR
Visi :
Ceiling :
>= 8 km
>= 3000ft
5 to 8 km
1000 to 3000 ft
1500m to 5 km
500 to 1000 ft
800 to 1500m
200 to 500 ft
< 800m
< 200 ft
Symbols :   Thunderstorms  Fog  Heavy snow  Heavy precipitations  Wind > 20 kt
SIGMETs :     Misc.  Thunderstorms  Icing  Turbulence  Mountain Waves  Volcanic Ashes







- Airport Elevation : 370 ft


EBBE - Beauvechain AB

CURRENT METAR :
  • 151525Z VRB01KT 9999 SCT010 BKN013 04/02 Q0996 GRN GRN

EXPIRED METARs :
  • 151455Z VRB01KT 9999 SCT011 BKN014 04/02 Q0996 GRN GRN
  • 151425Z 21003KT 9999 SCT011 BKN014 04/02 Q0996 GRN GRN
  • 151355Z 22005KT 9999 SCT011 BKN014 04/02 Q0995 GRN GRN
  • 151325Z 20009KT 9999 SCT013 BKN016 05/02 Q0995 GRN GRN
  • 151255Z 20008KT 9999 SCT010 BKN013 04/02 Q0995 GRN GRN

TAF TAF EBBE
Valid from the 15 at 13:00 until the 15 at 22:00 UTC


151141Z 1513/1522 21008KT 9999 SCT010 BKN015
TEMPO 1512/1517 5000 -SHRA SCT008 BKN013
PROB30
TEMPO 1512/1517 3000 -SHRASN SCT005 BKN012
No reported NOTAMs for that airfield.



MET'MAP, your aeronautical weather chart ! - Copyright ORBIFLY December 2007 - Disclaimer

ORBIFLY MET'MAP TEAM :

Programming & Development : Alexandra Zaïnal
Concept & Development : Baudouin d'Aumeries
Co-Development & Prog : Marc-Olivier Méhu
Technical & hardware support : Manuel Goepfert

Contact : metmap@orbifly.com




SOURCES & CREDITS :

   NOAA